Time;durP1;ratioP1;P1;durP2;ratioP2;P2;SDS_P1;SDS_P2;PMS_P1;PMS_P2;Temp;Humidity;BMP_temperature;BMP_pressure;BME280_temperature;BME280_humidity;BME280_pressure;Samples;Min_cycle;Max_cycle;Signal;HPM_P1;HPM_P2
2021/05/01 00:02:00;;;;;;;38.30;25.80;;;9.60;94.90;;;;;;5111832;28;20387;-86
2021/05/01 00:04:25;;;;;;;37.97;25.93;;;9.60;94.80;;;;;;5094509;28;20031;-85
2021/05/01 00:06:51;;;;;;;40.30;26.40;;;9.70;94.70;;;;;;5112787;28;20468;-86
2021/05/01 00:09:17;;;;;;;42.00;27.53;;;9.70;94.50;;;;;;5093903;28;20019;-86
2021/05/01 00:11:42;;;;;;;38.53;26.63;;;9.70;94.70;;;;;;5094623;28;20032;-86
2021/05/01 00:14:08;;;;;;;40.30;25.97;;;9.70;94.70;;;;;;5094263;28;20054;-86
2021/05/01 00:16:34;;;;;;;40.30;27.40;;;9.60;94.80;;;;;;5113125;28;20024;-86
2021/05/01 00:19:00;;;;;;;43.43;28.47;;;9.60;94.90;;;;;;5094702;28;20023;-86
2021/05/01 00:21:26;;;;;;;42.67;29.03;;;9.60;94.90;;;;;;5095777;28;20047;-85
2021/05/01 00:23:52;;;;;;;42.67;28.53;;;9.60;94.90;;;;;;5114214;28;20479;-85
2021/05/01 00:26:18;;;;;;;45.57;29.30;;;9.60;95.00;;;;;;5096011;28;20016;-86
2021/05/01 00:28:43;;;;;;;42.93;29.20;;;9.60;95.10;;;;;;5095625;28;20028;-85
2021/05/01 00:31:09;;;;;;;42.57;29.70;;;9.50;95.20;;;;;;5095688;28;20111;-85
2021/05/01 00:33:35;;;;;;;43.37;29.27;;;9.50;95.30;;;;;;5095898;28;20024;-85
2021/05/01 00:36:01;;;;;;;43.70;29.57;;;9.50;95.20;;;;;;5114119;28;20023;-86
2021/05/01 00:38:27;;;;;;;44.07;29.40;;;9.40;95.50;;;;;;5113992;28;20396;-85
2021/05/01 00:40:52;;;;;;;43.63;29.53;;;9.40;95.40;;;;;;5095902;28;20020;-86
2021/05/01 00:43:18;;;;;;;43.53;29.43;;;9.50;95.30;;;;;;5095998;28;20110;-86
2021/05/01 00:45:44;;;;;;;50.50;31.07;;;9.50;95.50;;;;;;5096130;28;20031;-85
2021/05/01 00:48:10;;;;;;;48.97;30.90;;;9.50;95.60;;;;;;5096055;28;20114;-85
2021/05/01 00:50:35;;;;;;;45.10;30.80;;;9.50;95.50;;;;;;5114614;28;20102;-86
2021/05/01 00:53:02;;;;;;;51.50;32.60;;;9.50;95.40;;;;;;5096958;28;20114;-85
2021/05/01 00:55:28;;;;;;;57.50;33.73;;;9.30;95.60;;;;;;5097181;28;20114;-86
2021/05/01 00:57:54;;;;;;;54.07;33.33;;;9.30;95.70;;;;;;5095784;28;20114;-86
2021/05/01 01:02:51;;;;;;;52.70;32.43;;;9.30;95.70;;;;;;5116848;28;20016;-86
2021/05/01 01:05:17;;;;;;;53.63;32.50;;;9.40;95.80;;;;;;5097592;28;20047;-86
2021/05/01 01:07:43;;;;;;;56.07;33.50;;;9.40;95.60;;;;;;5093784;28;20027;-86
2021/05/01 01:10:09;;;;;;;56.73;34.77;;;9.30;95.70;;;;;;5111429;28;20023;-86
2021/05/01 01:12:35;;;;;;;53.47;33.73;;;9.20;95.80;;;;;;5093554;28;20538;-86
2021/05/01 01:15:00;;;;;;;56.70;34.37;;;9.20;96.00;;;;;;5096758;28;20306;-86
2021/05/01 01:17:26;;;;;;;61.17;35.67;;;9.10;96.20;;;;;;5097348;28;20047;-86
2021/05/01 01:19:53;;;;;;;58.40;34.50;;;9.10;96.20;;;;;;5096728;28;20020;-86
2021/05/01 01:22:19;;;;;;;53.70;32.30;;;9.10;96.20;;;;;;5097034;28;20483;-85
2021/05/01 01:24:45;;;;;;;53.23;32.93;;;9.10;96.20;;;;;;5115332;28;20028;-86
2021/05/01 01:27:11;;;;;;;57.17;33.10;;;9.00;96.30;;;;;;5096987;28;20035;-86
2021/05/01 01:29:39;;;;;;;46.90;30.43;;;9.10;96.30;;;;;;5096496;28;20023;-86
2021/05/01 01:32:07;;;;;;;52.97;31.23;;;9.10;96.10;;;;;;5096701;28;20080;-86
2021/05/01 01:34:33;;;;;;;51.57;31.17;;;9.20;95.90;;;;;;5096804;28;20035;-86
2021/05/01 01:36:58;;;;;;;50.90;30.80;;;9.10;96.00;;;;;;5096689;28;20066;-86
2021/05/01 01:39:24;;;;;;;49.53;29.60;;;9.20;95.80;;;;;;5096245;28;20019;-86
2021/05/01 01:41:50;;;;;;;50.20;31.73;;;9.20;95.90;;;;;;5096737;28;20042;-86
2021/05/01 01:44:15;;;;;;;59.40;32.60;;;9.20;95.80;;;;;;5096668;28;20015;-86
2021/05/01 01:46:41;;;;;;;60.50;34.17;;;9.00;96.10;;;;;;5111192;22;20495;-84
2021/05/01 01:49:07;;;;;;;59.33;33.70;;;9.00;96.20;;;;;;5098692;28;20591;-83
2021/05/01 01:51:33;;;;;;;61.20;35.37;;;9.10;96.10;;;;;;5099562;28;20032;-84
2021/05/01 01:53:58;;;;;;;56.30;32.70;;;9.10;96.00;;;;;;5099818;28;20059;-85
2021/05/01 01:56:25;;;;;;;59.07;34.23;;;9.10;95.90;;;;;;5099301;28;20498;-86
2021/05/01 01:58:51;;;;;;;61.13;36.53;;;9.00;96.40;;;;;;5098252;28;20032;-84
2021/05/01 02:01:16;;;;;;;63.00;35.53;;;9.00;96.20;;;;;;5098838;28;20061;-85
2021/05/01 02:03:42;;;;;;;67.33;39.30;;;8.90;96.30;;;;;;5117481;28;20472;-83
2021/05/01 02:06:08;;;;;;;70.23;38.73;;;8.80;96.40;;;;;;5117607;28;20313;-85
2021/05/01 02:08:33;;;;;;;63.03;37.53;;;8.90;96.40;;;;;;5117479;28;20035;-84
2021/05/01 02:10:59;;;;;;;60.57;36.10;;;8.90;96.50;;;;;;5098154;28;20522;-84
2021/05/01 02:13:25;;;;;;;59.13;35.67;;;8.90;96.50;;;;;;5098890;28;20131;-84
2021/05/01 02:15:50;;;;;;;60.13;35.87;;;8.80;96.60;;;;;;5117071;28;20448;-83
2021/05/01 02:18:16;;;;;;;53.80;32.73;;;8.90;96.50;;;;;;5099130;28;20028;-84
2021/05/01 02:20:41;;;;;;;52.60;32.53;;;8.90;96.20;;;;;;5098163;28;20020;-85
2021/05/01 02:23:08;;;;;;;53.83;32.20;;;8.90;96.20;;;;;;5098323;28;20766;-84
2021/05/01 02:25:34;;;;;;;48.87;31.20;;;8.90;96.30;;;;;;5116154;28;20018;-85
2021/05/01 02:28:00;;;;;;;50.53;32.27;;;8.90;96.20;;;;;;5098757;28;20034;-84
2021/05/01 02:30:27;;;;;;;54.23;32.97;;;8.90;96.20;;;;;;5115544;28;20028;-84
2021/05/01 02:32:54;;;;;;;49.87;31.13;;;8.80;96.10;;;;;;5117425;28;20474;-84
2021/05/01 02:35:22;;;;;;;50.90;33.00;;;8.90;96.20;;;;;;5116880;28;20121;-85
2021/05/01 02:37:48;;;;;;;54.83;33.43;;;8.80;96.10;;;;;;5116778;28;20107;-84
2021/05/01 02:40:16;;;;;;;58.83;32.63;;;8.70;96.20;;;;;;5116745;28;20508;-84
2021/05/01 02:42:43;;;;;;;56.23;33.20;;;8.80;96.20;;;;;;5117085;28;20019;-84
2021/05/01 02:45:11;;;;;;;53.60;32.43;;;8.80;95.90;;;;;;5116852;28;20512;-85
2021/05/01 02:47:38;;;;;;;53.77;32.17;;;8.80;95.90;;;;;;5115211;28;20116;-86
2021/05/01 02:50:06;;;;;;;54.87;33.17;;;8.80;95.90;;;;;;5115455;28;20529;-85
2021/05/01 02:52:31;;;;;;;50.50;32.37;;;8.90;95.80;;;;;;5097994;28;20024;-84
2021/05/01 02:54:57;;;;;;;56.00;33.50;;;8.90;95.60;;;;;;5098579;28;20047;-84
2021/05/01 02:57:23;;;;;;;53.37;33.10;;;8.90;95.50;;;;;;5098067;28;20027;-84
2021/05/01 02:59:48;;;;;;;49.90;32.63;;;8.80;95.70;;;;;;5097505;28;20023;-84
2021/05/01 03:02:14;;;;;;;50.53;32.13;;;8.80;95.70;;;;;;5097692;28;20041;-85
2021/05/01 03:04:40;;;;;;;52.60;33.13;;;8.70;95.60;;;;;;5097838;28;20026;-85
2021/05/01 03:07:06;;;;;;;50.27;32.07;;;8.70;95.70;;;;;;5115883;28;20023;-85
2021/05/01 03:09:31;;;;;;;54.13;33.73;;;8.70;95.90;;;;;;5115857;28;20020;-83
2021/05/01 03:11:57;;;;;;;51.27;32.60;;;8.60;95.80;;;;;;5097770;28;20059;-84
2021/05/01 03:14:25;;;;;;;56.00;33.70;;;8.60;95.80;;;;;;5097350;28;20046;-84
2021/05/01 03:16:52;;;;;;;53.67;33.03;;;8.50;95.90;;;;;;5097697;28;20030;-84
2021/05/01 03:19:17;;;;;;;56.03;34.40;;;8.50;95.80;;;;;;5096807;28;20054;-83
2021/05/01 03:21:43;;;;;;;52.20;33.70;;;8.50;95.90;;;;;;5097786;28;20024;-83
2021/05/01 03:24:10;;;;;;;61.67;35.17;;;8.50;95.60;;;;;;5096945;28;20038;-83
2021/05/01 03:26:36;;;;;;;54.10;33.73;;;8.50;95.70;;;;;;5096572;28;20062;-84
2021/05/01 03:29:01;;;;;;;57.60;34.63;;;8.40;95.60;;;;;;5096011;28;20047;-84
2021/05/01 03:31:27;;;;;;;52.50;34.83;;;8.40;95.50;;;;;;5096188;28;20392;-83
2021/05/01 03:33:53;;;;;;;59.73;34.93;;;8.40;95.60;;;;;;5096764;28;20023;-85
2021/05/01 03:36:18;;;;;;;52.93;34.20;;;8.40;95.40;;;;;;5114617;28;20545;-83
2021/05/01 03:38:44;;;;;;;54.93;32.33;;;8.30;95.50;;;;;;5114708;28;20034;-84
2021/05/01 03:41:10;;;;;;;50.20;33.17;;;8.30;95.30;;;;;;5114029;28;20391;-84
2021/05/01 03:43:35;;;;;;;53.50;32.70;;;8.30;95.40;;;;;;5096595;28;20023;-84
2021/05/01 03:46:01;;;;;;;47.90;31.07;;;8.30;95.40;;;;;;5115020;28;20076;-85
2021/05/01 03:48:27;;;;;;;48.97;30.00;;;8.20;95.30;;;;;;5096058;28;20077;-85
2021/05/01 03:50:52;;;;;;;49.07;29.43;;;8.20;95.20;;;;;;5095615;28;20045;-83
2021/05/01 03:53:19;;;;;;;50.30;30.23;;;8.20;95.20;;;;;;5114466;28;20024;-84
2021/05/01 03:55:44;;;;;;;45.17;29.17;;;8.20;95.10;;;;;;5114287;28;20023;-84
2021/05/01 03:58:10;;;;;;;59.10;35.60;;;8.20;95.10;;;;;;5114585;28;20024;-84
2021/05/01 04:00:35;;;;;;;45.67;29.17;;;8.20;95.00;;;;;;5113651;28;20020;-85
2021/05/01 04:03:01;;;;;;;48.47;29.87;;;8.20;95.20;;;;;;5096125;28;20090;-84
2021/05/01 04:05:27;;;;;;;44.33;28.53;;;8.20;95.30;;;;;;5113575;28;20104;-84
2021/05/01 04:07:52;;;;;;;44.80;27.33;;;8.20;95.00;;;;;;5113863;28;20072;-84
2021/05/01 04:10:18;;;;;;;50.23;28.03;;;8.10;94.90;;;;;;5094931;28;20076;-84
2021/05/01 04:12:44;;;;;;;43.23;26.77;;;8.00;95.00;;;;;;5095516;28;20020;-84
2021/05/01 04:15:10;;;;;;;44.27;27.00;;;8.00;95.10;;;;;;5113459;28;20107;-84
2021/05/01 04:17:36;;;;;;;43.80;26.00;;;8.10;95.00;;;;;;5113473;28;20032;-84
2021/05/01 04:20:03;;;;;;;43.27;28.00;;;8.10;95.10;;;;;;5094618;28;20471;-84
2021/05/01 04:22:29;;;;;;;46.67;28.00;;;8.00;94.90;;;;;;5095038;28;20023;-84
2021/05/01 04:24:55;;;;;;;51.10;28.30;;;8.10;94.90;;;;;;5113281;28;20019;-84
2021/05/01 04:27:20;;;;;;;46.20;27.80;;;8.10;95.00;;;;;;5095287;28;20016;-83
2021/05/01 04:29:46;;;;;;;46.57;28.07;;;8.00;94.80;;;;;;5094508;28;20118;-84
2021/05/01 04:32:12;;;;;;;44.80;28.20;;;8.00;94.70;;;;;;5094547;28;20030;-84
2021/05/01 04:34:37;;;;;;;46.60;27.70;;;8.00;94.80;;;;;;5094666;28;20051;-83
2021/05/01 04:37:03;;;;;;;45.83;29.07;;;8.00;95.00;;;;;;5112480;28;20094;-83
2021/05/01 04:39:29;;;;;;;57.10;34.30;;;8.00;94.90;;;;;;5093699;28;20024;-83
2021/05/01 04:41:55;;;;;;;48.90;29.63;;;8.00;95.00;;;;;;5094160;28;20024;-83
2021/05/01 04:44:21;;;;;;;55.83;29.40;;;8.00;94.90;;;;;;5094714;28;20073;-83
2021/05/01 04:46:53;;;;;;;44.97;29.47;;;8.00;94.80;;;;;;5112439;28;20039;-84
2021/05/01 04:49:19;;;;;;;50.47;29.73;;;8.00;94.80;;;;;;5095579;28;20468;-84
2021/05/01 04:51:45;;;;;;;51.17;28.90;;;8.00;94.90;;;;;;5097670;28;20019;-83
2021/05/01 04:54:11;;;;;;;46.67;28.60;;;8.00;94.90;;;;;;5100510;28;20027;-84
2021/05/01 04:56:38;;;;;;;46.57;28.63;;;8.00;94.90;;;;;;5100044;28;20027;-84
2021/05/01 04:59:04;;;;;;;47.73;28.67;;;8.10;94.80;;;;;;5099731;28;20024;-84
2021/05/01 05:01:30;;;;;;;43.40;27.10;;;8.00;94.80;;;;;;5119087;28;20476;-83
2021/05/01 05:03:56;;;;;;;44.50;28.23;;;8.00;94.80;;;;;;5100749;28;20027;-84
2021/05/01 05:06:21;;;;;;;45.87;27.93;;;8.00;94.80;;;;;;5118941;28;20043;-84
2021/05/01 05:08:47;;;;;;;45.63;27.73;;;8.00;95.10;;;;;;5118709;28;20072;-84
2021/05/01 05:11:13;;;;;;;47.37;27.97;;;8.00;95.00;;;;;;5099943;28;20077;-85
2021/05/01 05:13:38;;;;;;;40.87;27.10;;;8.10;95.10;;;;;;5100239;28;20111;-83
2021/05/01 05:16:04;;;;;;;43.20;27.07;;;8.00;94.80;;;;;;5099560;28;20035;-84
2021/05/01 05:18:30;;;;;;;44.90;27.13;;;8.00;95.00;;;;;;5100373;28;20040;-84
2021/05/01 05:20:56;;;;;;;43.27;27.20;;;8.10;95.00;;;;;;5099242;28;20499;-83
2021/05/01 05:23:22;;;;;;;45.07;27.30;;;8.10;94.70;;;;;;5118502;28;20357;-84
2021/05/01 05:25:47;;;;;;;37.83;25.70;;;8.20;94.70;;;;;;5117851;28;20024;-84
2021/05/01 05:28:13;;;;;;;41.67;25.27;;;8.20;94.60;;;;;;5099727;28;20031;-85
2021/05/01 05:30:39;;;;;;;40.63;25.67;;;8.30;94.70;;;;;;5117433;28;20047;-85
2021/05/01 05:33:04;;;;;;;42.80;25.90;;;8.20;94.80;;;;;;5118240;28;20023;-85
2021/05/01 05:35:30;;;;;;;43.73;26.33;;;8.20;94.80;;;;;;5099603;28;20020;-84
2021/05/01 05:37:56;;;;;;;43.43;27.50;;;8.20;94.70;;;;;;5100143;28;20077;-85
2021/05/01 05:40:22;;;;;;;40.83;26.63;;;8.30;94.70;;;;;;5118387;28;20464;-84
2021/05/01 05:42:49;;;;;;;48.30;26.53;;;8.30;94.70;;;;;;5099973;28;20026;-85
2021/05/01 05:45:24;;;;;;;43.77;26.63;;;8.30;94.70;;;;;;5099731;28;20046;-84
2021/05/01 05:47:50;;;;;;;45.63;27.00;;;8.30;94.90;;;;;;5118532;28;20035;-83
2021/05/01 05:50:16;;;;;;;47.67;27.43;;;8.20;94.80;;;;;;5099271;28;20024;-86
2021/05/01 05:52:42;;;;;;;45.17;26.93;;;8.20;94.70;;;;;;5099455;28;20027;-86
2021/05/01 05:55:09;;;;;;;40.40;25.87;;;8.40;94.70;;;;;;5099677;28;20023;-84
2021/05/01 05:57:36;;;;;;;41.97;26.47;;;8.40;94.50;;;;;;5099583;28;20484;-84
2021/05/01 06:00:05;;;;;;;41.47;25.60;;;8.40;94.70;;;;;;5097905;28;20024;-84
2021/05/01 06:02:31;;;;;;;40.17;24.05;;;8.40;94.30;;;;;;5094548;28;20019;-83
2021/05/01 06:05:03;;;;;;;39.40;24.83;;;8.50;94.20;;;;;;5099923;28;20023;-83
2021/05/01 06:07:40;;;;;;;35.37;23.57;;;8.50;94.20;;;;;;5118100;28;20019;-84
2021/05/01 06:10:08;;;;;;;40.03;25.40;;;8.50;94.10;;;;;;5109353;28;20072;-84
2021/05/01 06:12:34;;;;;;;36.57;23.37;;;8.50;94.00;;;;;;5129853;28;20015;-84
2021/05/01 06:15:08;;;;;;;34.87;23.57;;;8.50;93.90;;;;;;5111919;28;20042;-85
2021/05/01 06:17:35;;;;;;;38.90;23.20;;;8.50;94.10;;;;;;5101842;28;20019;-85
2021/05/01 06:20:03;;;;;;;41.27;23.40;;;8.50;94.00;;;;;;5101922;28;20043;-85
2021/05/01 06:22:28;;;;;;;36.13;23.27;;;8.50;94.00;;;;;;5120255;28;20023;-86
2021/05/01 06:24:54;;;;;;;40.20;23.00;;;8.50;93.90;;;;;;5101830;28;20024;-85
2021/05/01 06:27:21;;;;;;;41.50;23.20;;;8.50;94.00;;;;;;5101328;28;20491;-84
2021/05/01 06:29:48;;;;;;;39.40;22.80;;;8.40;93.90;;;;;;5101319;28;20020;-85
2021/05/01 06:32:15;;;;;;;31.27;19.70;;;8.50;94.00;;;;;;5101409;28;20055;-86
2021/05/01 06:34:57;;;;;;;31.47;18.77;;;8.50;93.80;;;;;;5120327;28;20031;-86
2021/05/01 06:37:25;;;;;;;35.30;18.97;;;8.50;94.30;;;;;;5101498;28;20468;-86
2021/05/01 06:39:53;;;;;;;35.07;18.50;;;8.60;93.90;;;;;;5119330;28;20027;-85
2021/05/01 06:42:28;;;;;;;35.43;18.37;;;8.60;93.90;;;;;;5118896;28;20020;-85
2021/05/01 06:45:03;;;;;;;38.37;17.47;;;8.60;93.80;;;;;;5100626;28;20026;-85
2021/05/01 06:47:30;;;;;;;28.10;14.93;;;8.60;93.90;;;;;;5118921;28;20035;-85
2021/05/01 06:50:11;;;;;;;30.40;16.50;;;8.60;93.90;;;;;;5099900;28;20100;-85
2021/05/01 06:52:45;;;;;;;28.30;15.83;;;8.60;93.80;;;;;;5100792;28;20019;-84
2021/05/01 06:55:12;;;;;;;24.23;14.17;;;8.60;93.90;;;;;;5100703;28;20024;-84
2021/05/01 06:57:46;;;;;;;28.50;15.63;;;8.60;93.70;;;;;;5101084;28;20070;-85
2021/05/01 07:00:12;;;;;;;30.40;16.33;;;8.60;93.70;;;;;;5100112;28;20055;-86
2021/05/01 07:02:42;;;;;;;26.33;15.40;;;8.70;93.70;;;;;;5100837;28;20024;-85
2021/05/01 07:05:24;;;;;;;26.90;15.63;;;8.70;93.60;;;;;;5118816;28;20030;-83
2021/05/01 07:07:50;;;;;;;27.00;15.10;;;8.60;93.30;;;;;;5118640;28;20137;-85
2021/05/01 07:10:17;;;;;;;25.70;15.23;;;8.60;93.50;;;;;;5099658;28;20051;-86
2021/05/01 07:12:44;;;;;;;24.73;15.20;;;8.60;93.50;;;;;;5098925;28;20031;-83
2021/05/01 07:15:16;;;;;;;21.93;12.00;;;8.70;92.90;;;;;;5099234;28;20089;-86
2021/05/01 07:17:42;;;;;;;22.83;13.53;;;8.60;91.10;;;;;;5099887;28;20047;-86
2021/05/01 07:20:09;;;;;;;24.27;13.67;;;8.60;91.50;;;;;;5117290;28;20028;-86
2021/05/01 07:22:35;;;;;;;23.83;14.07;;;8.70;92.00;;;;;;5099522;28;20020;-84
2021/05/01 07:25:03;;;;;;;25.27;14.67;;;8.80;91.80;;;;;;5099515;28;20106;-84
2021/05/01 07:27:35;;;;;;;25.47;15.20;;;8.80;91.70;;;;;;5117850;28;20031;-85
2021/05/01 07:30:03;;;;;;;33.50;16.83;;;8.80;91.40;;;;;;5117143;28;20027;-84
2021/05/01 07:32:32;;;;;;;36.63;17.90;;;8.90;90.60;;;;;;5098990;28;20030;-85
2021/05/01 07:35:01;;;;;;;28.30;14.95;;;8.90;90.50;;;;;;5100219;28;20390;-84
2021/05/01 07:37:29;;;;;;;25.30;14.18;;;8.90;90.00;;;;;;5116694;28;20103;-85
2021/05/01 07:39:55;;;;;;;27.80;14.93;;;8.90;88.70;;;;;;5117508;28;20020;-85
2021/05/01 07:42:22;;;;;;;26.03;13.83;;;9.00;87.80;;;;;;5118630;28;20019;-85
2021/05/01 07:44:56;;;;;;;24.90;14.57;;;9.00;87.00;;;;;;5098930;28;20053;-83
2021/05/01 07:47:23;;;;;;;23.00;14.23;;;9.00;86.70;;;;;;5117336;28;20453;-83
2021/05/01 07:49:52;;;;;;;20.80;11.67;;;9.00;86.80;;;;;;5098619;28;20023;-85
2021/05/01 07:52:18;;;;;;;19.20;12.77;;;9.00;83.70;;;;;;5098481;28;20032;-85
2021/05/01 07:54:44;;;;;;;23.47;13.33;;;9.10;84.60;;;;;;5116160;28;20387;-83
2021/05/01 07:57:11;;;;;;;19.67;13.10;;;9.10;85.80;;;;;;5097600;28;20517;-86
2021/05/01 07:59:36;;;;;;;20.73;12.00;;;9.20;84.70;;;;;;5114839;28;20012;-86
2021/05/01 08:02:04;;;;;;;21.93;13.03;;;9.20;84.00;;;;;;5116179;28;20030;-83
2021/05/01 08:04:30;;;;;;;18.33;12.13;;;9.20;84.50;;;;;;5097484;28;20026;-84
2021/05/01 08:06:56;;;;;;;21.93;13.07;;;9.30;85.10;;;;;;5097353;28;20027;-84
2021/05/01 08:09:22;;;;;;;23.80;15.07;;;9.40;85.20;;;;;;5097081;28;20032;-84
2021/05/01 08:11:48;;;;;;;24.50;14.40;;;9.40;85.40;;;;;;5097287;28;20430;-84
2021/05/01 08:14:13;;;;;;;22.97;14.10;;;9.40;85.10;;;;;;5097823;28;20023;-83
2021/05/01 08:16:39;;;;;;;25.23;14.10;;;9.20;84.00;;;;;;5097080;28;20019;-85
2021/05/01 08:19:05;;;;;;;27.23;17.10;;;9.20;84.20;;;;;;5097798;28;20027;-84
2021/05/01 08:21:31;;;;;;;19.97;12.90;;;9.20;83.80;;;;;;5115115;28;20015;-84
2021/05/01 08:23:58;;;;;;;19.97;13.53;;;9.20;82.70;;;;;;5118048;28;20039;-87
2021/05/01 08:26:24;;;;;;;23.63;13.57;;;9.20;83.40;;;;;;5121770;28;20026;-86
2021/05/01 08:28:49;;;;;;;23.60;14.17;;;9.30;83.60;;;;;;5122029;28;20043;-87
2021/05/01 08:31:15;;;;;;;22.80;13.53;;;9.20;83.60;;;;;;5103286;28;20476;-86
2021/05/01 08:33:41;;;;;;;22.63;13.90;;;9.30;83.60;;;;;;5103022;28;20162;-86
2021/05/01 08:36:07;;;;;;;19.73;12.13;;;9.40;81.00;;;;;;5103541;28;20049;-83
2021/05/01 08:38:36;;;;;;;29.40;16.30;;;9.40;79.90;;;;;;5101161;28;20492;-83
2021/05/01 08:41:04;;;;;;;32.13;17.35;;;9.50;82.90;;;;;;5099009;28;20437;-84
2021/05/01 08:43:30;;;;;;;20.37;13.20;;;9.40;82.20;;;;;;5099645;28;20068;-83
2021/05/01 08:45:57;;;;;;;24.17;14.93;;;9.40;81.60;;;;;;5117594;28;20461;-83
2021/05/01 08:48:24;;;;;;;30.47;17.17;;;9.60;80.80;;;;;;5116961;28;20476;-83
2021/05/01 08:51:10;;;;;;;34.40;18.07;;;9.50;81.80;;;;;;5118368;28;20214;-84
2021/05/01 08:53:36;;;;;;;29.10;17.50;;;9.50;82.10;;;;;;5101932;28;20051;-86
2021/05/01 08:56:02;;;;;;;23.60;14.33;;;9.60;81.80;;;;;;5102633;28;20118;-85
2021/05/01 08:58:28;;;;;;;22.40;14.80;;;9.60;81.20;;;;;;5102984;28;20119;-85
2021/05/01 09:00:54;;;;;;;19.30;13.07;;;9.70;81.40;;;;;;5120806;28;20468;-86
2021/05/01 09:03:22;;;;;;;19.23;12.23;;;9.70;80.90;;;;;;5102518;28;20019;-85
2021/05/01 09:05:49;;;;;;;18.60;11.37;;;9.80;76.00;;;;;;5102664;28;20020;-84
2021/05/01 09:08:16;;;;;;;19.07;11.53;;;9.70;74.30;;;;;;5103518;28;20043;-86
2021/05/01 09:10:51;;;;;;;19.97;12.47;;;9.70;73.00;;;;;;5120959;28;20030;-84
2021/05/01 09:13:20;;;;;;;18.57;10.30;;;9.80;73.70;;;;;;5103386;28;20023;-85
2021/05/01 09:16:04;;;;;;;20.67;11.75;;;9.80;72.10;;;;;;5122061;28;20388;-86
2021/05/01 09:18:45;;;;;;;21.47;13.03;;;9.90;75.10;;;;;;5121643;28;20083;-85
2021/05/01 09:21:13;;;;;;;16.73;10.87;;;9.90;75.20;;;;;;5121304;28;20026;-84
2021/05/01 09:23:38;;;;;;;15.87;8.40;;;9.90;72.30;;;;;;5101793;28;20026;-84
2021/05/01 09:26:04;;;;;;;15.80;9.43;;;10.00;68.10;;;;;;5102223;28;20020;-84
2021/05/01 09:28:51;;;;;;;16.13;10.23;;;10.00;70.50;;;;;;5101857;28;20032;-84
2021/05/01 09:31:19;;;;;;;20.27;10.57;;;10.10;71.60;;;;;;5120825;28;20027;-84
2021/05/01 09:33:52;;;;;;;17.93;9.63;;;10.10;71.80;;;;;;5102583;28;20048;-85
2021/05/01 09:36:19;;;;;;;16.20;8.97;;;10.10;70.50;;;;;;5120398;28;20027;-85
2021/05/01 09:38:51;;;;;;;13.20;7.17;;;10.20;71.30;;;;;;5118481;28;20482;-84
2021/05/01 09:41:24;;;;;;;12.97;8.10;;;10.30;65.40;;;;;;5100595;28;20495;-84
2021/05/01 09:44:04;;;;;;;11.20;7.37;;;10.20;68.70;;;;;;5099882;28;20030;-84
2021/05/01 09:46:52;;;;;;;13.80;9.07;;;10.30;69.20;;;;;;5099841;28;20084;-85
2021/05/01 09:49:23;;;;;;;16.50;9.33;;;10.30;69.80;;;;;;5100400;28;20058;-86
2021/05/01 09:52:10;;;;;;;13.33;8.57;;;10.40;71.10;;;;;;5100481;28;20483;-84
2021/05/01 09:54:44;;;;;;;14.83;9.20;;;10.50;70.80;;;;;;5100656;28;20115;-86
2021/05/01 09:57:14;;;;;;;12.03;8.10;;;10.50;71.00;;;;;;5100367;28;20487;-86
2021/05/01 09:59:54;;;;;;;13.03;9.27;;;10.60;71.50;;;;;;5099596;28;20020;-85
2021/05/01 10:02:23;;;;;;;15.60;9.37;;;10.60;71.80;;;;;;5100274;28;20543;-84
2021/05/01 10:05:11;;;;;;;11.85;7.85;;;10.60;68.90;;;;;;5100461;28;20483;-84
2021/05/01 10:07:41;;;;;;;12.80;7.33;;;10.50;66.20;;;;;;5118699;28;20028;-84
2021/05/01 10:10:07;;;;;;;10.23;6.90;;;10.50;65.70;;;;;;5099814;28;20043;-83
2021/05/01 10:12:35;;;;;;;9.83;6.47;;;10.60;63.20;;;;;;5118176;28;20030;-84
2021/05/01 10:15:03;;;;;;;9.27;6.13;;;10.50;62.60;;;;;;5099995;28;20480;-84
2021/05/01 10:17:32;;;;;;;11.67;7.87;;;10.60;63.30;;;;;;5100370;28;20028;-85
2021/05/01 10:20:00;;;;;;;11.15;7.43;;;10.60;63.40;;;;;;5099998;28;20026;-85
2021/05/01 10:22:29;;;;;;;12.60;7.32;;;10.60;64.60;;;;;;5118296;28;20026;-86
2021/05/01 10:24:57;;;;;;;12.90;7.87;;;10.60;65.80;;;;;;5099836;28;20039;-85
2021/05/01 10:27:23;;;;;;;8.33;6.00;;;10.70;65.90;;;;;;5099785;28;20031;-84
2021/05/01 10:30:16;;;;;;;12.20;7.57;;;10.80;62.00;;;;;;5118935;28;20022;-85
2021/05/01 10:32:46;;;;;;;10.40;6.47;;;10.80;64.10;;;;;;5099224;28;20047;-84
2021/05/01 10:35:12;;;;;;;11.07;6.13;;;10.70;64.50;;;;;;5117599;28;20039;-84
2021/05/01 10:37:47;;;;;;;8.73;6.03;;;10.80;63.20;;;;;;5099528;28;20544;-84
2021/05/01 10:40:13;;;;;;;10.97;6.53;;;10.90;62.00;;;;;;5099336;28;20020;-87
2021/05/01 10:42:38;;;;;;;11.07;6.40;;;10.90;62.60;;;;;;5099894;28;20024;-84
2021/05/01 10:45:05;;;;;;;10.57;6.17;;;10.80;63.40;;;;;;5099669;28;20111;-84
2021/05/01 10:47:31;;;;;;;8.50;5.27;;;10.70;60.90;;;;;;5099825;28;20488;-85
2021/05/01 10:49:58;;;;;;;8.90;5.20;;;10.80;60.80;;;;;;5117924;28;20049;-86
2021/05/01 10:52:24;;;;;;;10.33;5.53;;;10.70;60.80;;;;;;5119642;28;20388;-84
2021/05/01 10:55:04;;;;;;;11.40;6.43;;;10.80;61.40;;;;;;5100207;28;20472;-84
2021/05/01 10:57:32;;;;;;;8.23;5.37;;;10.80;60.60;;;;;;5099990;28;20034;-86
2021/05/01 11:00:10;;;;;;;13.07;7.67;;;10.70;61.70;;;;;;5099460;28;20121;-85
2021/05/01 11:02:41;;;;;;;11.37;7.10;;;10.70;63.20;;;;;;5100569;28;20059;-86
2021/05/01 11:05:10;;;;;;;13.37;8.47;;;10.70;64.50;;;;;;5100321;28;20464;-84
2021/05/01 11:08:01;;;;;;;17.52;7.88;;;10.70;65.00;;;;;;5099776;28;20061;-86
2021/05/01 11:10:28;;;;;;;11.90;7.80;;;10.70;64.90;;;;;;5099548;28;20476;-86
2021/05/01 11:12:55;;;;;;;11.07;6.30;;;10.70;64.00;;;;;;5099480;28;20547;-86
2021/05/01 11:15:25;;;;;;;12.83;8.20;;;10.90;61.40;;;;;;5099628;28;20020;-84
2021/05/01 11:17:59;;;;;;;7.75;5.50;;;10.90;60.00;;;;;;5116929;28;20372;-84
2021/05/01 11:20:26;;;;;;;11.87;6.63;;;11.00;59.60;;;;;;5098742;28;20030;-85
2021/05/01 11:22:53;;;;;;;9.43;5.70;;;11.00;60.10;;;;;;5100495;28;20029;-84
2021/05/01 11:25:22;;;;;;;11.40;6.60;;;11.10;60.40;;;;;;5100448;28;20080;-86
2021/05/01 11:27:50;;;;;;;13.15;7.13;;;11.20;59.50;;;;;;5099857;28;20404;-86
2021/05/01 11:30:22;;;;;;;14.37;7.67;;;11.20;59.70;;;;;;5099499;28;20552;-86
2021/05/01 11:32:48;;;;;;;9.23;6.40;;;11.20;59.70;;;;;;5099993;28;20434;-84
2021/05/01 11:35:17;;;;;;;12.60;6.40;;;11.20;59.80;;;;;;5119195;28;20033;-86
2021/05/01 11:37:55;;;;;;;10.10;5.50;;;11.20;59.90;;;;;;5100144;28;20483;-85
2021/05/01 11:40:23;;;;;;;10.90;5.90;;;11.20;60.10;;;;;;5100145;28;20114;-85
2021/05/01 11:42:51;;;;;;;9.50;6.38;;;11.20;58.90;;;;;;5101338;28;20023;-86
2021/05/01 11:45:25;;;;;;;16.93;9.83;;;11.30;59.20;;;;;;5100146;28;20092;-86
2021/05/01 11:47:53;;;;;;;8.63;5.93;;;11.40;60.70;;;;;;5101595;28;20039;-86
2021/05/01 11:50:20;;;;;;;15.17;6.83;;;11.50;59.50;;;;;;5100340;28;20020;-84
2021/05/01 11:53:04;;;;;;;11.33;6.50;;;11.60;58.50;;;;;;5119940;28;20028;-85
2021/05/01 11:55:39;;;;;;;12.80;7.00;;;11.80;59.30;;;;;;5104196;28;20024;-86
2021/05/01 11:58:08;;;;;;;9.67;6.43;;;11.70;58.60;;;;;;5101301;28;20023;-86
2021/05/01 12:00:40;;;;;;;11.65;7.20;;;11.80;58.40;;;;;;5102844;28;20123;-84
2021/05/01 12:03:26;;;;;;;9.80;6.20;;;11.80;58.80;;;;;;5102593;28;20024;-86
2021/05/01 12:06:00;;;;;;;10.33;5.90;;;11.90;57.10;;;;;;5101092;28;20464;-85
2021/05/01 12:08:27;;;;;;;12.00;6.67;;;11.90;57.80;;;;;;5120950;28;20464;-85
2021/05/01 12:10:55;;;;;;;9.33;6.43;;;12.00;56.40;;;;;;5102295;28;20027;-85
2021/05/01 12:13:30;;;;;;;9.57;6.47;;;12.10;57.30;;;;;;5100744;28;20038;-86
2021/05/01 12:15:57;;;;;;;8.27;5.60;;;12.10;56.50;;;;;;5099994;28;20023;-85
2021/05/01 12:18:44;;;;;;;8.57;6.13;;;12.10;55.10;;;;;;5118601;28;20024;-86
2021/05/01 12:21:21;;;;;;;6.57;5.13;;;12.10;54.70;;;;;;5099622;28;20388;-85
2021/05/01 12:23:50;;;;;;;8.73;4.93;;;12.20;53.50;;;;;;5099606;28;20047;-85
2021/05/01 12:26:38;;;;;;;8.70;6.10;;;12.30;53.30;;;;;;5099716;28;20048;-85
2021/05/01 12:29:19;;;;;;;11.60;6.23;;;12.20;51.90;;;;;;5117853;28;20028;-86
2021/05/01 12:31:50;;;;;;;10.13;6.17;;;12.10;52.90;;;;;;5099387;28;20084;-86
2021/05/01 12:34:17;;;;;;;9.40;6.07;;;12.10;53.40;;;;;;5118871;28;20027;-85
2021/05/01 12:36:45;;;;;;;9.70;6.07;;;12.10;52.60;;;;;;5100041;28;20024;-83
2021/05/01 12:39:12;;;;;;;10.13;6.47;;;12.10;53.50;;;;;;5100317;28;20019;-83
2021/05/01 12:41:43;;;;;;;8.63;6.00;;;12.00;53.30;;;;;;5100261;28;20028;-84
2021/05/01 12:44:29;;;;;;;8.47;5.97;;;12.00;52.90;;;;;;5100167;28;20456;-84
2021/05/01 12:46:56;;;;;;;9.43;5.70;;;12.00;52.70;;;;;;5100197;28;20477;-84